Time;durP1;ratioP1;P1;durP2;ratioP2;P2;SDS_P1;SDS_P2;PMS_P1;PMS_P2;Temp;Humidity;BMP_temperature;BMP_pressure;BME280_temperature;BME280_humidity;BME280_pressure;Samples;Min_cycle;Max_cycle;Signal;HPM_P1;HPM_P2
2022/07/12 00:01:57;;;;;;;3.37;3.03;;;;;;;;;;5053815;28;20202;-66
2022/07/12 00:04:23;;;;;;;2.83;2.50;;;;;;;;;;5053706;28;20222;-66
2022/07/12 00:06:49;;;;;;;3.17;2.40;;;;;;;;;;5053736;28;20692;-66
2022/07/12 00:09:15;;;;;;;3.57;2.33;;;;;;;;;;5053594;28;20190;-65
2022/07/12 00:11:42;;;;;;;5.20;2.60;;;;;;;;;;5053538;28;20521;-66
2022/07/12 00:14:09;;;;;;;3.10;2.80;;;;;;;;;;5053509;28;20593;-65
2022/07/12 00:16:35;;;;;;;2.60;2.40;;;;;;;;;;5035599;28;20174;-66
2022/07/12 00:19:01;;;;;;;2.90;2.43;;;;;;;;;;5053265;28;20209;-66
2022/07/12 00:21:27;;;;;;;3.07;2.70;;;;;;;;;;5053245;28;20258;-67
2022/07/12 00:23:53;;;;;;;3.10;2.80;;;;;;;;;;5053315;28;20585;-66
2022/07/12 00:26:20;;;;;;;3.30;2.83;;;;;;;;;;5053309;28;20213;-66
2022/07/12 00:28:46;;;;;;;3.57;2.80;;;;;;;;;;5035206;28;20560;-66
2022/07/12 00:31:12;;;;;;;3.10;2.50;;;;;;;;;;5053449;28;20174;-66
2022/07/12 00:33:38;;;;;;;2.70;2.50;;;;;;;;;;5053184;28;20175;-66
2022/07/12 00:36:04;;;;;;;3.83;2.60;;;;;;;;;;5035340;28;20583;-66
2022/07/12 00:38:30;;;;;;;3.77;2.70;;;;;;;;;;5053110;28;20202;-66
2022/07/12 00:40:56;;;;;;;2.97;2.77;;;;;;;;;;5053235;28;20265;-66
2022/07/12 00:43:22;;;;;;;3.30;3.00;;;;;;;;;;5053063;28;20281;-65
2022/07/12 00:45:48;;;;;;;4.03;2.73;;;;;;;;;;5053040;28;20642;-66
2022/07/12 00:48:14;;;;;;;3.20;2.90;;;;;;;;;;5053350;28;20195;-66
2022/07/12 00:50:40;;;;;;;3.70;2.73;;;;;;;;;;5053006;28;20643;-66
2022/07/12 00:53:06;;;;;;;3.30;2.70;;;;;;;;;;5035144;28;20178;-66
2022/07/12 00:55:32;;;;;;;3.57;3.10;;;;;;;;;;5053123;28;20711;-66
2022/07/12 00:57:58;;;;;;;2.70;2.50;;;;;;;;;;5053052;28;20202;-66
2022/07/12 01:00:25;;;;;;;5.27;2.90;;;;;;;;;;5052952;28;20195;-66
2022/07/12 01:02:52;;;;;;;4.83;3.43;;;;;;;;;;5053329;28;20202;-66
2022/07/12 01:05:18;;;;;;;5.37;3.20;;;;;;;;;;5034942;28;20269;-66
2022/07/12 01:07:44;;;;;;;4.43;2.83;;;;;;;;;;5052809;28;20202;-66
2022/07/12 01:10:11;;;;;;;7.73;3.33;;;;;;;;;;5035018;28;20178;-66
2022/07/12 01:12:37;;;;;;;5.07;3.17;;;;;;;;;;5053094;28;20189;-66
2022/07/12 01:15:05;;;;;;;3.27;2.60;;;;;;;;;;5034991;28;20193;-66
2022/07/12 01:17:31;;;;;;;3.70;2.77;;;;;;;;;;5052786;28;20590;-64
2022/07/12 01:19:57;;;;;;;2.93;2.63;;;;;;;;;;5035208;28;20186;-66
2022/07/12 01:22:27;;;;;;;4.73;2.90;;;;;;;;;;5053478;28;20289;-66
2022/07/12 01:24:53;;;;;;;5.03;2.80;;;;;;;;;;5053515;28;20202;-66
2022/07/12 01:27:19;;;;;;;4.80;3.23;;;;;;;;;;5052690;28;20210;-66
2022/07/12 01:29:45;;;;;;;4.17;3.07;;;;;;;;;;5052590;28;20301;-66
2022/07/12 01:32:26;;;;;;;4.90;3.33;;;;;;;;;;5052985;28;20183;-66
2022/07/12 01:34:56;;;;;;;5.63;2.83;;;;;;;;;;5052722;28;20193;-66
2022/07/12 01:37:23;;;;;;;3.83;2.87;;;;;;;;;;5052839;28;20179;-66
2022/07/12 01:39:51;;;;;;;4.80;2.87;;;;;;;;;;5052515;28;20257;-66
2022/07/12 01:42:17;;;;;;;4.33;3.17;;;;;;;;;;5052446;28;20206;-66
2022/07/12 01:44:43;;;;;;;4.23;3.27;;;;;;;;;;5052523;28;20183;-66
2022/07/12 01:47:10;;;;;;;4.10;2.63;;;;;;;;;;5052496;28;20183;-66
2022/07/12 01:49:36;;;;;;;4.67;3.43;;;;;;;;;;5034549;28;20194;-66
2022/07/12 01:52:01;;;;;;;3.60;3.30;;;;;;;;;;5052453;28;20185;-66
2022/07/12 01:54:27;;;;;;;6.40;4.13;;;;;;;;;;5052499;28;20214;-66
2022/07/12 01:56:54;;;;;;;4.90;3.47;;;;;;;;;;5052347;28;20182;-66
2022/07/12 01:59:20;;;;;;;5.27;3.37;;;;;;;;;;5052708;28;20228;-66
2022/07/12 02:01:46;;;;;;;5.90;3.23;;;;;;;;;;5055945;28;20194;-66
2022/07/12 02:04:12;;;;;;;4.77;3.27;;;;;;;;;;5038094;28;20561;-66
2022/07/12 02:06:39;;;;;;;4.87;3.37;;;;;;;;;;5056474;28;20197;-66
2022/07/12 02:09:05;;;;;;;3.97;3.60;;;;;;;;;;5055784;28;20598;-66
2022/07/12 02:11:31;;;;;;;3.60;3.30;;;;;;;;;;5038001;28;20183;-66
2022/07/12 02:13:58;;;;;;;4.37;3.50;;;;;;;;;;5056043;28;20202;-66
2022/07/12 02:16:23;;;;;;;3.73;3.10;;;;;;;;;;5056021;28;20265;-66
2022/07/12 02:18:49;;;;;;;3.90;3.60;;;;;;;;;;5055787;28;20281;-66
2022/07/12 02:21:15;;;;;;;;;;;;;;;;;;5056037;28;19949;-66
2022/07/12 02:23:41;;;;;;;;;;;;;;;;;;5038088;28;19963;-66
2022/07/12 02:26:07;;;;;;;3.70;3.40;;;;;;;;;;5055604;28;19956;-66
2022/07/12 02:28:33;;;;;;;4.07;3.30;;;;;;;;;;5055675;28;20604;-66
2022/07/12 02:30:59;;;;;;;5.13;3.63;;;;;;;;;;5055468;28;20178;-66
2022/07/12 02:33:25;;;;;;;4.13;3.40;;;;;;;;;;5055528;28;20304;-66
2022/07/12 02:35:51;;;;;;;4.53;3.30;;;;;;;;;;5037511;28;20183;-66
2022/07/12 02:38:20;;;;;;;4.37;3.40;;;;;;;;;;5038202;28;20202;-67
2022/07/12 02:40:54;;;;;;;3.80;3.40;;;;;;;;;;5037430;28;20204;-66
2022/07/12 02:43:28;;;;;;;7.63;3.63;;;;;;;;;;5037248;28;20651;-66
2022/07/12 02:45:58;;;;;;;5.43;3.60;;;;;;;;;;5055259;28;20171;-66
2022/07/12 02:48:24;;;;;;;3.40;3.10;;;;;;;;;;5055086;28;20201;-66
2022/07/12 02:50:50;;;;;;;3.77;3.47;;;;;;;;;;5037242;28;20217;-67
2022/07/12 02:53:16;;;;;;;3.77;3.30;;;;;;;;;;5055115;28;20190;-67
2022/07/12 02:55:42;;;;;;;5.90;3.57;;;;;;;;;;5055002;28;20178;-66
2022/07/12 02:58:08;;;;;;;3.93;3.47;;;;;;;;;;5038995;28;20252;-66
2022/07/12 03:00:34;;;;;;;3.90;3.30;;;;;;;;;;5056786;28;20186;-66
2022/07/12 03:03:01;;;;;;;4.10;3.33;;;;;;;;;;5056115;28;20198;-66
2022/07/12 03:05:27;;;;;;;4.40;3.33;;;;;;;;;;5056131;28;20227;-66
2022/07/12 03:07:53;;;;;;;3.80;3.50;;;;;;;;;;5055233;28;20198;-66
2022/07/12 03:10:19;;;;;;;6.07;3.30;;;;;;;;;;5054808;28;20185;-66
2022/07/12 03:12:45;;;;;;;4.20;3.77;;;;;;;;;;5053635;28;20182;-67
2022/07/12 03:15:11;;;;;;;4.10;3.70;;;;;;;;;;5054833;28;20274;-67
2022/07/12 03:17:37;;;;;;;4.30;3.53;;;;;;;;;;5036870;28;20608;-66
2022/07/12 03:20:06;;;;;;;3.70;3.30;;;;;;;;;;5054531;28;20203;-66
2022/07/12 03:22:32;;;;;;;3.67;3.37;;;;;;;;;;5036575;28;20206;-67
2022/07/12 03:24:58;;;;;;;5.00;3.57;;;;;;;;;;5036509;28;20610;-67
2022/07/12 03:27:25;;;;;;;4.30;3.40;;;;;;;;;;5036503;28;20214;-67
2022/07/12 03:29:51;;;;;;;5.20;3.47;;;;;;;;;;5036288;28;20259;-66
2022/07/12 03:32:17;;;;;;;3.80;3.27;;;;;;;;;;5054851;28;20544;-66
2022/07/12 03:34:43;;;;;;;4.43;3.40;;;;;;;;;;5054328;28;20265;-66
2022/07/12 03:37:09;;;;;;;3.30;3.00;;;;;;;;;;5054488;28;20240;-66
2022/07/12 03:39:35;;;;;;;6.37;3.30;;;;;;;;;;5054045;28;20194;-66
2022/07/12 03:42:01;;;;;;;4.93;3.60;;;;;;;;;;5053971;28;20230;-66
2022/07/12 03:44:27;;;;;;;7.53;4.20;;;;;;;;;;5054015;28;20174;-66
2022/07/12 03:46:53;;;;;;;4.93;4.30;;;;;;;;;;5054198;28;20186;-66
2022/07/12 03:49:19;;;;;;;6.40;3.53;;;;;;;;;;5053895;28;20198;-66
2022/07/12 03:51:45;;;;;;;4.53;4.10;;;;;;;;;;5054100;28;20175;-67
2022/07/12 03:54:11;;;;;;;4.97;4.07;;;;;;;;;;5054010;28;20189;-67
2022/07/12 03:59:22;;;;;;;6.67;4.37;;;;;;;;;;5054019;28;20705;-66
2022/07/12 04:01:48;;;;;;;4.50;4.10;;;;;;;;;;5053638;28;20197;-66
2022/07/12 04:04:14;;;;;;;4.83;4.30;;;;;;;;;;5053536;28;20639;-66
2022/07/12 04:06:40;;;;;;;4.60;3.93;;;;;;;;;;5053789;28;20252;-66
2022/07/12 04:09:06;;;;;;;6.10;3.73;;;;;;;;;;5053583;28;20697;-67
2022/07/12 04:11:33;;;;;;;5.70;4.07;;;;;;;;;;5053843;28;20627;-66
2022/07/12 04:13:58;;;;;;;4.50;4.10;;;;;;;;;;5053600;28;20175;-66
2022/07/12 04:16:25;;;;;;;6.00;4.10;;;;;;;;;;5035665;28;20228;-66
2022/07/12 04:18:51;;;;;;;4.83;4.30;;;;;;;;;;5035504;28;20264;-66
2022/07/12 04:21:17;;;;;;;4.97;4.47;;;;;;;;;;5035578;28;20182;-67
2022/07/12 04:23:43;;;;;;;4.50;4.00;;;;;;;;;;5035205;28;20211;-66
2022/07/12 04:26:09;;;;;;;4.90;4.10;;;;;;;;;;5035444;28;20179;-67
2022/07/12 04:28:38;;;;;;;4.93;4.43;;;;;;;;;;5053055;28;20218;-67
2022/07/12 04:31:04;;;;;;;5.23;4.07;;;;;;;;;;5035490;28;20178;-66
2022/07/12 04:33:30;;;;;;;4.63;4.23;;;;;;;;;;5053621;28;20192;-66
2022/07/12 04:35:56;;;;;;;5.00;4.50;;;;;;;;;;5053469;28;20185;-66
2022/07/12 04:38:22;;;;;;;5.70;5.13;;;;;;;;;;5035222;28;20203;-68
2022/07/12 04:40:47;;;;;;;5.50;5.00;;;;;;;;;;5053100;28;20178;-67
2022/07/12 04:43:13;;;;;;;7.43;4.83;;;;;;;;;;5053295;28;20252;-67
2022/07/12 04:45:43;;;;;;;4.80;4.40;;;;;;;;;;5053030;28;20228;-67
2022/07/12 04:48:09;;;;;;;5.63;5.00;;;;;;;;;;5053022;28;20197;-67
2022/07/12 04:50:35;;;;;;;5.70;5.20;;;;;;;;;;5035118;28;20182;-68
2022/07/12 04:53:01;;;;;;;6.67;6.07;;;;;;;;;;5053291;28;20693;-67
2022/07/12 04:55:27;;;;;;;5.90;5.40;;;;;;;;;;5053313;28;20182;-67
2022/07/12 04:57:53;;;;;;;6.57;5.67;;;;;;;;;;5053087;28;20241;-67
2022/07/12 05:00:19;;;;;;;6.07;5.43;;;;;;;;;;5053158;28;20190;-67
2022/07/12 05:02:46;;;;;;;6.40;5.77;;;;;;;;;;5053043;28;20198;-67
2022/07/12 05:05:12;;;;;;;5.67;5.17;;;;;;;;;;5052943;28;20631;-67
2022/07/12 05:07:37;;;;;;;4.63;4.17;;;;;;;;;;5052769;28;20189;-67
2022/07/12 05:10:04;;;;;;;4.57;4.17;;;;;;;;;;5052832;28;20658;-67
2022/07/12 05:12:30;;;;;;;5.93;4.00;;;;;;;;;;5052854;28;20187;-67
2022/07/12 05:14:56;;;;;;;4.60;4.20;;;;;;;;;;5053020;28;20596;-67
2022/07/12 05:17:22;;;;;;;4.23;3.83;;;;;;;;;;5053001;28;20179;-67
2022/07/12 05:19:48;;;;;;;4.30;3.93;;;;;;;;;;5052623;28;20226;-67
2022/07/12 05:22:13;;;;;;;5.47;4.10;;;;;;;;;;5052632;28;20205;-67
2022/07/12 05:24:39;;;;;;;5.20;4.70;;;;;;;;;;5052653;28;20265;-67
2022/07/12 05:27:05;;;;;;;6.97;4.57;;;;;;;;;;5052723;28;20178;-67
2022/07/12 05:29:31;;;;;;;8.80;5.50;;;;;;;;;;5052434;28;20214;-67
2022/07/12 05:31:57;;;;;;;5.43;4.80;;;;;;;;;;5052592;28;20194;-67
2022/07/12 05:34:23;;;;;;;5.50;5.00;;;;;;;;;;5052969;28;20205;-66
2022/07/12 05:36:50;;;;;;;6.77;5.00;;;;;;;;;;5056446;28;20182;-67
2022/07/12 05:39:16;;;;;;;6.50;5.57;;;;;;;;;;5038448;28;20268;-67
2022/07/12 05:41:42;;;;;;;7.00;6.30;;;;;;;;;;5056552;28;20178;-67
2022/07/12 05:44:08;;;;;;;8.70;7.37;;;;;;;;;;5056398;28;20316;-67
2022/07/12 05:46:34;;;;;;;10.43;6.60;;;;;;;;;;5056576;28;20182;-67
2022/07/12 05:49:00;;;;;;;8.47;7.50;;;;;;;;;;5039568;28;20226;-67
2022/07/12 05:54:11;;;;;;;8.60;7.33;;;;;;;;;;5056418;28;20208;-67
2022/07/12 05:56:37;;;;;;;8.13;6.67;;;;;;;;;;5039068;28;20178;-67
2022/07/12 05:59:03;;;;;;;8.20;7.33;;;;;;;;;;5038206;28;20202;-67
2022/07/12 06:01:29;;;;;;;11.10;6.80;;;;;;;;;;5055916;28;20187;-67
2022/07/12 06:03:55;;;;;;;12.03;6.90;;;;;;;;;;5038211;28;20178;-67
2022/07/12 06:06:21;;;;;;;7.90;7.10;;;;;;;;;;5056632;28;20181;-67
2022/07/12 06:08:47;;;;;;;19.10;11.13;;;;;;;;;;5055802;28;20198;-67
2022/07/12 06:11:13;;;;;;;19.03;11.80;;;;;;;;;;5055958;28;20170;-66
2022/07/12 06:13:39;;;;;;;20.13;13.00;;;;;;;;;;5037800;28;20251;-67
2022/07/12 06:16:05;;;;;;;23.73;14.40;;;;;;;;;;5056316;28;20210;-67
2022/07/12 06:18:32;;;;;;;27.47;15.93;;;;;;;;;;5037683;28;20213;-67
2022/07/12 06:20:58;;;;;;;23.47;13.10;;;;;;;;;;5055647;28;20201;-67
2022/07/12 06:23:24;;;;;;;22.97;13.27;;;;;;;;;;5055483;28;20674;-67
2022/07/12 06:25:50;;;;;;;16.73;12.37;;;;;;;;;;5037626;28;20186;-67
2022/07/12 06:28:16;;;;;;;20.77;12.73;;;;;;;;;;5055716;28;20237;-67
2022/07/12 06:30:42;;;;;;;22.13;13.57;;;;;;;;;;5056015;28;20595;-67
2022/07/12 06:33:08;;;;;;;20.17;15.33;;;;;;;;;;5037550;28;20183;-67
2022/07/12 06:35:34;;;;;;;19.33;14.63;;;;;;;;;;5055263;28;20623;-67
2022/07/12 06:38:00;;;;;;;24.10;14.10;;;;;;;;;;5055438;28;20285;-67
2022/07/12 06:40:26;;;;;;;15.77;12.93;;;;;;;;;;5055282;28;20187;-67
2022/07/12 06:42:52;;;;;;;13.77;10.40;;;;;;;;;;5055166;28;20195;-67
2022/07/12 06:45:18;;;;;;;10.80;9.70;;;;;;;;;;5055338;28;20179;-67
2022/07/12 06:47:44;;;;;;;12.57;9.87;;;;;;;;;;5055094;28;20249;-66
2022/07/12 06:50:10;;;;;;;10.47;9.37;;;;;;;;;;5055406;28;20174;-67
2022/07/12 06:52:36;;;;;;;12.07;9.40;;;;;;;;;;5055069;28;20186;-67
2022/07/12 06:55:02;;;;;;;10.13;9.00;;;;;;;;;;5055016;28;20210;-67
2022/07/12 06:57:30;;;;;;;11.17;8.70;;;;;;;;;;5055220;28;20214;-67
2022/07/12 06:59:56;;;;;;;11.40;8.70;;;;;;;;;;5037043;28;20213;-67
2022/07/12 07:02:22;;;;;;;9.43;7.27;;;;;;;;;;5054923;28;20198;-67
2022/07/12 07:04:49;;;;;;;8.73;7.83;;;;;;;;;;5054870;28;20170;-67
2022/07/12 07:07:14;;;;;;;8.30;7.47;;;;;;;;;;5036986;28;20601;-67
2022/07/12 07:09:41;;;;;;;9.07;7.30;;;;;;;;;;5054687;28;20205;-67
2022/07/12 07:12:07;;;;;;;8.17;7.43;;;;;;;;;;5036869;28;20219;-67
2022/07/12 07:14:33;;;;;;;9.23;7.87;;;;;;;;;;5036888;28;20178;-67
2022/07/12 07:17:00;;;;;;;8.57;7.60;;;;;;;;;;5036647;28;20642;-67
2022/07/12 07:19:26;;;;;;;8.20;7.40;;;;;;;;;;5054729;28;20241;-67
2022/07/12 07:21:53;;;;;;;8.37;7.20;;;;;;;;;;5054419;28;20734;-67
2022/07/12 07:24:20;;;;;;;10.87;7.73;;;;;;;;;;5054512;28;20179;-67
2022/07/12 07:26:46;;;;;;;11.50;8.60;;;;;;;;;;5036575;28;20220;-67
2022/07/12 07:31:56;;;;;;;9.60;8.47;;;;;;;;;;5054644;28;20249;-67
2022/07/12 07:34:23;;;;;;;9.80;8.87;;;;;;;;;;5036330;28;20191;-67
2022/07/12 07:36:49;;;;;;;10.73;8.73;;;;;;;;;;5054279;28;20178;-67
2022/07/12 07:39:15;;;;;;;9.13;8.17;;;;;;;;;;5054073;28;20606;-67
2022/07/12 07:41:41;;;;;;;8.87;7.97;;;;;;;;;;5054339;28;20185;-67
2022/07/12 07:44:07;;;;;;;8.90;7.13;;;;;;;;;;5054082;28;20174;-67
2022/07/12 07:46:33;;;;;;;10.60;7.57;;;;;;;;;;5054530;28;20228;-67
2022/07/12 07:48:59;;;;;;;10.63;7.27;;;;;;;;;;5054154;28;20190;-67
2022/07/12 07:51:25;;;;;;;7.37;5.93;;;;;;;;;;5054176;28;20233;-67
2022/07/12 07:53:51;;;;;;;6.07;5.47;;;;;;;;;;5054093;28;20186;-67
2022/07/12 07:56:17;;;;;;;8.07;7.33;;;;;;;;;;5054655;28;20190;-67
2022/07/12 07:58:43;;;;;;;10.93;8.07;;;;;;;;;;5036094;28;20212;-67
2022/07/12 08:01:09;;;;;;;7.30;6.60;;;;;;;;;;5053879;28;20210;-67
2022/07/12 08:03:35;;;;;;;8.47;6.03;;;;;;;;;;5053996;28;20681;-67
2022/07/12 08:06:01;;;;;;;7.40;6.70;;;;;;;;;;5053994;28;20539;-67
2022/07/12 08:08:30;;;;;;;7.87;7.07;;;;;;;;;;5035771;28;20248;-67
2022/07/12 08:10:56;;;;;;;6.97;5.77;;;;;;;;;;5053903;28;20174;-67
2022/07/12 08:13:23;;;;;;;6.77;6.10;;;;;;;;;;5053861;28;20186;-67
2022/07/12 08:15:49;;;;;;;7.93;5.43;;;;;;;;;;5035928;28;20248;-67
2022/07/12 08:18:15;;;;;;;6.47;5.20;;;;;;;;;;5053406;28;20206;-67
2022/07/12 08:20:41;;;;;;;5.83;5.23;;;;;;;;;;5053729;28;20533;-67
2022/07/12 08:23:07;;;;;;;5.87;5.20;;;;;;;;;;5053876;28;20201;-67
2022/07/12 08:25:33;;;;;;;5.67;4.87;;;;;;;;;;5035440;28;20185;-67
2022/07/12 08:27:59;;;;;;;5.60;5.00;;;;;;;;;;5035260;28;20273;-67
2022/07/12 08:30:25;;;;;;;8.80;6.73;;;;;;;;;;5053841;28;20209;-67
2022/07/12 08:32:51;;;;;;;6.60;5.43;;;;;;;;;;5035503;28;20561;-67
2022/07/12 08:35:17;;;;;;;6.80;5.20;;;;;;;;;;5053253;28;20178;-67
2022/07/12 08:37:43;;;;;;;5.33;4.83;;;;;;;;;;5035248;28;20312;-67
2022/07/12 08:40:09;;;;;;;4.60;4.20;;;;;;;;;;5053114;28;20187;-67
2022/07/12 08:42:36;;;;;;;4.80;4.30;;;;;;;;;;5053491;28;20202;-67
2022/07/12 08:45:02;;;;;;;4.53;4.13;;;;;;;;;;5053078;28;20170;-67
2022/07/12 08:47:28;;;;;;;5.77;4.57;;;;;;;;;;5052958;28;20203;-67
2022/07/12 08:50:12;;;;;;;5.63;4.83;;;;;;;;;;5053189;28;20222;-67
2022/07/12 08:52:42;;;;;;;4.33;3.90;;;;;;;;;;5035135;28;20178;-67
2022/07/12 08:55:28;;;;;;;4.50;3.97;;;;;;;;;;5035123;28;20185;-67
2022/07/12 08:57:55;;;;;;;4.50;4.10;;;;;;;;;;5052475;28;20632;-67
2022/07/12 09:00:22;;;;;;;5.13;4.10;;;;;;;;;;5053426;28;20179;-67
2022/07/12 09:02:48;;;;;;;7.53;4.03;;;;;;;;;;5035017;28;20229;-67
2022/07/12 09:05:15;;;;;;;7.83;4.43;;;;;;;;;;5052966;28;20638;-67
2022/07/12 09:07:40;;;;;;;6.07;4.00;;;;;;;;;;5052779;28;20178;-67
2022/07/12 09:10:07;;;;;;;5.77;4.20;;;;;;;;;;5054575;28;20182;-67
2022/07/12 09:12:34;;;;;;;5.23;4.27;;;;;;;;;;5039000;28;20217;-67
2022/07/12 09:15:16;;;;;;;5.20;4.50;;;;;;;;;;5039041;28;20186;-67
2022/07/12 09:17:47;;;;;;;8.40;4.53;;;;;;;;;;5038949;28;20185;-67
2022/07/12 09:20:13;;;;;;;11.10;5.93;;;;;;;;;;5038917;28;20170;-68
2022/07/12 09:22:43;;;;;;;9.77;6.87;;;;;;;;;;5056775;28;20289;-68
2022/07/12 09:25:16;;;;;;;9.53;6.03;;;;;;;;;;5056842;28;20206;-67
2022/07/12 09:27:47;;;;;;;8.27;6.40;;;;;;;;;;5038598;28;20214;-67
2022/07/12 09:30:13;;;;;;;9.63;7.00;;;;;;;;;;5038796;28;20182;-68
2022/07/12 09:38:18;;;;;;;11.23;8.10;;;;;;;;;;5056714;28;20209;-67
2022/07/12 09:40:44;;;;;;;11.00;8.20;;;;;;;;;;5056405;28;20175;-67
2022/07/12 09:43:11;;;;;;;10.57;7.17;;;;;;;;;;5056592;28;20194;-67
2022/07/12 09:45:37;;;;;;;12.00;7.20;;;;;;;;;;5056343;28;20552;-67
2022/07/12 09:48:04;;;;;;;11.07;7.53;;;;;;;;;;5056280;28;20194;-67
2022/07/12 09:50:30;;;;;;;11.77;8.07;;;;;;;;;;5058406;28;20540;-67
2022/07/12 09:52:58;;;;;;;11.13;8.23;;;;;;;;;;5059250;28;20324;-67
2022/07/12 09:55:25;;;;;;;12.00;8.27;;;;;;;;;;5057660;28;20642;-67
2022/07/12 09:57:55;;;;;;;12.03;7.60;;;;;;;;;;5056151;28;20261;-67
2022/07/12 10:00:21;;;;;;;9.07;6.77;;;;;;;;;;5056803;28;20171;-67
2022/07/12 10:02:50;;;;;;;9.10;6.13;;;;;;;;;;5056025;28;20202;-67
2022/07/12 10:05:16;;;;;;;8.07;6.10;;;;;;;;;;5038188;28;20178;-67
2022/07/12 10:07:42;;;;;;;7.37;6.20;;;;;;;;;;5055859;28;20571;-67
2022/07/12 10:10:09;;;;;;;7.10;5.30;;;;;;;;;;5038073;28;20179;-67
2022/07/12 10:12:35;;;;;;;10.77;6.67;;;;;;;;;;5038820;28;20194;-67
2022/07/12 10:15:03;;;;;;;9.73;6.37;;;;;;;;;;5056231;28;20262;-67
2022/07/12 10:17:30;;;;;;;6.63;5.87;;;;;;;;;;5055699;28;20206;-67
2022/07/12 10:20:14;;;;;;;8.87;7.37;;;;;;;;;;5056409;28;20198;-67
2022/07/12 10:22:40;;;;;;;9.97;6.77;;;;;;;;;;5055930;28;20665;-67
2022/07/12 10:25:26;;;;;;;9.50;6.77;;;;;;;;;;5037800;28;20213;-67
2022/07/12 10:27:52;;;;;;;10.97;7.07;;;;;;;;;;5055254;28;20269;-67
2022/07/12 10:30:19;;;;;;;9.87;6.73;;;;;;;;;;5055744;28;20220;-67
2022/07/12 10:32:45;;;;;;;10.17;6.00;;;;;;;;;;5055398;28;20618;-67
2022/07/12 10:35:17;;;;;;;9.77;5.40;;;;;;;;;;5055306;28;20673;-67
2022/07/12 10:38:03;;;;;;;10.73;6.43;;;;;;;;;;5055256;28;20174;-67
2022/07/12 10:40:34;;;;;;;8.77;5.40;;;;;;;;;;5055313;28;20239;-67
2022/07/12 10:43:07;;;;;;;7.93;6.17;;;;;;;;;;5055563;28;20198;-67
2022/07/12 10:45:44;;;;;;;13.30;7.30;;;;;;;;;;5037383;28;20174;-67
2022/07/12 10:48:19;;;;;;;8.57;6.37;;;;;;;;;;5055054;28;20202;-67
2022/07/12 10:50:45;;;;;;;8.07;5.17;;;;;;;;;;5055412;28;20522;-67
2022/07/12 10:53:21;;;;;;;6.50;5.00;;;;;;;;;;5037156;28;20178;-67
2022/07/12 10:56:06;;;;;;;6.90;4.87;;;;;;;;;;5037126;28;20594;-67
2022/07/12 10:58:34;;;;;;;8.93;5.43;;;;;;;;;;5037010;28;20234;-67
2022/07/12 11:01:00;;;;;;;6.87;5.60;;;;;;;;;;5054936;28;20178;-67
2022/07/12 11:03:46;;;;;;;8.40;4.83;;;;;;;;;;5054829;28;20245;-67
2022/07/12 11:06:19;;;;;;;9.87;5.13;;;;;;;;;;5054690;28;20631;-67
2022/07/12 11:08:51;;;;;;;11.27;5.73;;;;;;;;;;5036797;28;20281;-67
2022/07/12 11:11:18;;;;;;;9.10;5.87;;;;;;;;;;5054750;28;20646;-67
2022/07/12 11:13:44;;;;;;;7.90;6.00;;;;;;;;;;5036792;28;20236;-67
2022/07/12 11:16:10;;;;;;;8.73;6.10;;;;;;;;;;5054868;28;20183;-67
2022/07/12 11:18:37;;;;;;;7.03;4.87;;;;;;;;;;5036619;28;20754;-67
2022/07/12 11:21:03;;;;;;;6.17;4.87;;;;;;;;;;5054526;28;20174;-67
2022/07/12 11:23:30;;;;;;;8.27;5.80;;;;;;;;;;5054398;28;20205;-67
2022/07/12 11:26:00;;;;;;;5.90;4.60;;;;;;;;;;5054973;28;20694;-67
2022/07/12 11:28:30;;;;;;;6.77;4.97;;;;;;;;;;5054161;28;20210;-67
2022/07/12 11:31:04;;;;;;;8.20;4.53;;;;;;;;;;5036514;28;20627;-67
2022/07/12 11:33:34;;;;;;;7.03;5.00;;;;;;;;;;5053372;28;20309;-67
2022/07/12 11:36:01;;;;;;;6.03;4.50;;;;;;;;;;5054487;28;20200;-65
2022/07/12 11:38:27;;;;;;;6.90;4.90;;;;;;;;;;5053998;28;20201;-65
2022/07/12 11:40:57;;;;;;;10.00;4.57;;;;;;;;;;5054199;28;20174;-65
2022/07/12 11:43:23;;;;;;;7.97;4.70;;;;;;;;;;5036473;28;20071;-67
2022/07/12 11:45:49;;;;;;;6.93;4.53;;;;;;;;;;5054340;28;20174;-65
2022/07/12 11:48:16;;;;;;;5.03;4.03;;;;;;;;;;5054442;28;20285;-65
2022/07/12 11:50:45;;;;;;;4.03;3.43;;;;;;;;;;5037230;28;20178;-65
2022/07/12 11:53:15;;;;;;;5.43;3.80;;;;;;;;;;5054460;28;20178;-66
2022/07/12 11:55:42;;;;;;;5.13;4.00;;;;;;;;;;5055200;28;20201;-65
2022/07/12 11:58:08;;;;;;;7.17;3.67;;;;;;;;;;5036808;28;20237;-65
2022/07/12 12:00:34;;;;;;;4.30;3.73;;;;;;;;;;5055735;28;20185;-65
2022/07/12 12:03:00;;;;;;;4.53;3.87;;;;;;;;;;5053870;28;20252;-65
2022/07/12 12:05:26;;;;;;;5.90;3.78;;;;;;;;;;5036160;28;20199;-65
2022/07/12 12:07:52;;;;;;;5.43;3.83;;;;;;;;;;5053856;28;20170;-65
2022/07/12 12:10:18;;;;;;;4.30;3.67;;;;;;;;;;5053795;28;20186;-66
2022/07/12 12:12:47;;;;;;;8.03;3.87;;;;;;;;;;5054058;28;20178;-65
2022/07/12 12:15:15;;;;;;;5.00;3.50;;;;;;;;;;5035930;28;20178;-65
2022/07/12 12:17:45;;;;;;;12.10;3.67;;;;;;;;;;5053584;28;20215;-65
2022/07/12 12:20:16;;;;;;;6.30;3.87;;;;;;;;;;5053515;28;20257;-65
2022/07/12 12:22:42;;;;;;;5.05;3.88;;;;;;;;;;5053347;28;20201;-66
2022/07/12 12:25:13;;;;;;;6.07;3.30;;;;;;;;;;5053420;28;20186;-65
2022/07/12 12:28:02;;;;;;;4.35;3.47;;;;;;;;;;5053236;28;20635;-64
2022/07/12 12:30:29;;;;;;;3.67;3.03;;;;;;;;;;5042883;28;20563;-65
2022/07/12 12:32:56;;;;;;;5.30;3.63;;;;;;;;;;5035313;28;20240;-65
2022/07/12 12:35:23;;;;;;;3.83;2.58;;;;;;;;;;5035349;28;20183;-65
2022/07/12 12:37:58;;;;;;;3.70;3.23;;;;;;;;;;5053174;28;20634;-65
2022/07/12 12:40:25;;;;;;;4.13;3.47;;;;;;;;;;5053327;28;20178;-65
2022/07/12 12:42:52;;;;;;;4.93;3.40;;;;;;;;;;5053078;28;20209;-65
2022/07/12 12:45:27;;;;;;;4.28;3.47;;;;;;;;;;5053230;28;20193;-65
2022/07/12 12:47:53;;;;;;;3.10;2.90;;;;;;;;;;5053447;28;20170;-65
2022/07/12 12:50:35;;;;;;;3.15;2.85;;;;;;;;;;5053320;28;20175;-65
2022/07/12 12:53:07;;;;;;;4.45;3.10;;;;;;;;;;5035090;28;20170;-66
2022/07/12 12:55:33;;;;;;;4.82;2.90;;;;;;;;;;5035128;28;20251;-65
2022/07/12 12:58:00;;;;;;;3.63;3.22;;;;;;;;;;5052808;28;20682;-65
2022/07/12 13:00:26;;;;;;;3.50;2.77;;;;;;;;;;5052986;28;20650;-65
2022/07/12 13:02:51;;;;;;;5.55;3.25;;;;;;;;;;5052854;28;20277;-66
2022/07/12 13:05:17;;;;;;;3.27;3.03;;;;;;;;;;5052793;28;20178;-65
2022/07/12 13:07:43;;;;;;;3.75;3.42;;;;;;;;;;5034958;28;20182;-65
2022/07/12 13:10:09;;;;;;;3.40;3.13;;;;;;;;;;5052885;28;20236;-65
2022/07/12 13:12:35;;;;;;;3.85;3.45;;;;;;;;;;5053066;28;20179;-65
2022/07/12 13:15:01;;;;;;;3.38;3.08;;;;;;;;;;5052697;28;20236;-65
2022/07/12 13:17:27;;;;;;;3.80;3.15;;;;;;;;;;5034844;28;20667;-66
2022/07/12 13:19:53;;;;;;;3.30;3.00;;;;;;;;;;5052601;28;20755;-66
2022/07/12 13:22:19;;;;;;;4.32;3.30;;;;;;;;;;5052882;28;20202;-66
2022/07/12 13:24:45;;;;;;;3.88;3.20;;;;;;;;;;5052759;28;20182;-65
2022/07/12 13:27:11;;;;;;;3.85;3.05;;;;;;;;;;5052785;28;20181;-65
2022/07/12 13:29:37;;;;;;;3.50;3.20;;;;;;;;;;5052667;28;20297;-65
2022/07/12 13:32:03;;;;;;;3.33;3.13;;;;;;;;;;5034737;28;20175;-65
2022/07/12 13:34:29;;;;;;;3.53;3.30;;;;;;;;;;5052465;28;20179;-66
2022/07/12 13:36:55;;;;;;;3.63;3.10;;;;;;;;;;5052558;28;20185;-65
2022/07/12 13:42:05;;;;;;;5.28;3.13;;;;;;;;;;5052557;28;20578;-65
2022/07/12 13:44:31;;;;;;;3.35;3.15;;;;;;;;;;5034721;28;20174;-65
2022/07/12 13:46:57;;;;;;;3.30;3.10;;;;;;;;;;5052443;28;20551;-66
2022/07/12 13:49:23;;;;;;;3.42;3.13;;;;;;;;;;5052428;28;20666;-65
2022/07/12 13:51:49;;;;;;;3.70;3.40;;;;;;;;;;5052349;28;20177;-66
2022/07/12 13:54:15;;;;;;;3.50;3.20;;;;;;;;;;5052583;28;20663;-66
2022/07/12 13:56:41;;;;;;;3.35;3.05;;;;;;;;;;5055167;28;20175;-66
2022/07/12 13:59:07;;;;;;;3.13;2.92;;;;;;;;;;5056000;28;20193;-66
2022/07/12 14:01:33;;;;;;;3.20;3.00;;;;;;;;;;5055967;28;20170;-65
2022/07/12 14:03:59;;;;;;;3.95;3.20;;;;;;;;;;5055814;28;20206;-66
2022/07/12 14:06:25;;;;;;;3.22;2.92;;;;;;;;;;5055905;28;20174;-65
2022/07/12 14:08:52;;;;;;;2.83;2.55;;;;;;;;;;5037979;28;20294;-65
2022/07/12 14:11:18;;;;;;;2.95;2.75;;;;;;;;;;5054699;28;20382;-66
2022/07/12 14:13:44;;;;;;;3.20;2.90;;;;;;;;;;5055129;28;20385;-65
2022/07/12 14:16:10;;;;;;;3.28;2.97;;;;;;;;;;5055728;28;20210;-65
2022/07/12 14:18:36;;;;;;;5.70;3.03;;;;;;;;;;5055747;28;20190;-65
2022/07/12 14:21:02;;;;;;;3.58;3.13;;;;;;;;;;5055922;28;20182;-66
2022/07/12 14:23:28;;;;;;;3.03;2.83;;;;;;;;;;5037751;28;20284;-65
2022/07/12 14:25:54;;;;;;;3.38;3.08;;;;;;;;;;5037696;28;20723;-66
2022/07/12 14:28:20;;;;;;;3.38;2.80;;;;;;;;;;5055572;28;20844;-65
2022/07/12 14:30:46;;;;;;;3.38;3.08;;;;;;;;;;5055529;28;20272;-66
2022/07/12 14:33:11;;;;;;;3.72;3.42;;;;;;;;;;5055467;28;20294;-65
2022/07/12 14:35:37;;;;;;;3.22;2.92;;;;;;;;;;5037822;28;20179;-66
2022/07/12 14:38:03;;;;;;;2.70;2.50;;;;;;;;;;5037406;28;20195;-66
2022/07/12 14:40:29;;;;;;;2.88;2.67;;;;;;;;;;5055333;28;20795;-66
2022/07/12 14:42:57;;;;;;;3.17;2.90;;;;;;;;;;5055152;28;20213;-65
2022/07/12 14:45:23;;;;;;;3.10;2.90;;;;;;;;;;5055240;28;20171;-65
2022/07/12 14:47:49;;;;;;;3.42;3.13;;;;;;;;;;5055420;28;20250;-65
2022/07/12 14:50:15;;;;;;;3.42;3.15;;;;;;;;;;5055158;28;20278;-66
2022/07/12 14:52:43;;;;;;;3.67;3.38;;;;;;;;;;5054983;28;20183;-66
2022/07/12 14:55:09;;;;;;;4.75;2.92;;;;;;;;;;5037161;28;20186;-65
2022/07/12 14:57:36;;;;;;;3.00;2.80;;;;;;;;;;5055240;28;20175;-66